FWCO2: Wolf Creek nr Ft. Supply 9S

Data processed at Fri Jan 05 2018 23:08


All information presented herein is the property of the government of the United States of America and may be revised or deleted at any time without prior notice.
Dissemination of this information without the expressed written consent of the Public Affairs Office, Tulsa District U.S. Army Corps of Engineers is strictly prohibited.
These data are gathered electronically and, as presented, have not undergone any form of quality control. These data are not guaranteed to be valid or correct.
Go to home page.
Go to station list.

Upstream stations:

Downstream station:
Previous Day
Next Day
Current Day
    
SHEF ID:       FWCO2     Wolf Creek nr Ft. Supply 9S
STATION TYPE:  

               PRECIP     STAGE  RIV-FLOW   VOLTAGE
                   in        ft       cfs      volt
              Ccp-Rev   Ccp-Rev   Ccp-Rev   Ccp-Rev
(US/Central)
01/03 00:00      0.00      7.36       307     12.90
01/03 01:00      0.00      7.35       300     12.80
01/03 02:00      0.00      7.32       280     12.80
01/03 03:00      0.00      7.29       259     12.80
01/03 04:00      0.00      7.27       246     12.80
01/03 05:00      0.00      7.27       246     12.80
01/03 06:00      0.00      7.28       252     12.80
01/03 07:00      0.00      7.27       246     12.80
01/03 08:00      0.00      7.26       239     12.80
01/03 09:00      0.00      7.26       239     14.20
01/03 10:00      0.00      7.25       232     15.00
01/03 11:00      0.00      7.24       225     14.90
01/03 12:00      0.00      7.25       232     14.90
01/03 13:00      0.00      7.31       273     14.80
01/03 14:00      0.00      7.40       334     14.80
01/03 15:00      0.00      7.45       369     14.70
01/03 16:00      0.00      7.44       362     14.70
01/03 17:00      0.00      7.42       348     13.50
01/03 18:00      ----      ----      ----      ----
01/03 19:00      ----      7.43       355     13.10
01/03 20:00      0.00      7.45       369     13.00
01/03 21:00      0.00      7.44       362     12.80
01/03 22:00      0.00      7.44       362     12.80
01/03 23:00      0.00      7.40       334     12.90